Time;durP1;ratioP1;P1;durP2;ratioP2;P2;SDS_P1;SDS_P2;PMS_P1;PMS_P2;Temp;Humidity;BMP_temperature;BMP_pressure;BME280_temperature;BME280_humidity;BME280_pressure;Samples;Min_cycle;Max_cycle;Signal;HPM_P1;HPM_P2
2022/10/12 00:02:53;;;;;;;7.47;4.50;;;10.90;97.80;;;;;;21006614;28;20230;-73
2022/10/12 00:12:55;;;;;;;9.47;4.53;;;11.10;97.40;;;;;;21006017;28;20266;-73
2022/10/12 00:22:57;;;;;;;10.23;4.10;;;11.10;97.50;;;;;;21004642;28;20544;-73
2022/10/12 00:32:58;;;;;;;7.90;4.30;;;11.20;97.10;;;;;;21004304;28;20232;-73
2022/10/12 00:43:00;;;;;;;13.23;4.23;;;11.30;97.10;;;;;;21003363;28;20262;-73
2022/10/12 00:53:15;;;;;;;11.37;4.37;;;11.30;97.10;;;;;;21003073;28;20291;-77
2022/10/12 01:03:20;;;;;;;26.13;4.20;;;11.00;97.00;;;;;;21001085;28;20637;-76
2022/10/12 01:13:21;;;;;;;6.77;4.00;;;11.00;97.00;;;;;;21001051;28;20289;-73
2022/10/12 01:23:52;;;;;;;12.80;4.20;;;10.90;97.30;;;;;;21000823;28;20207;-73
2022/10/12 01:34:01;;;;;;;14.77;3.87;;;10.80;96.80;;;;;;20999578;28;20234;-73
2022/10/12 01:44:03;;;;;;;9.63;3.70;;;10.50;97.00;;;;;;20998592;28;20272;-76
2022/10/12 01:54:20;;;;;;;8.63;3.70;;;10.10;97.00;;;;;;20997863;28;20231;-72
2022/10/12 02:04:36;;;;;;;10.60;3.63;;;10.00;97.30;;;;;;20997345;28;20231;-73
2022/10/12 02:14:45;;;;;;;12.67;4.10;;;10.20;97.30;;;;;;20996558;28;20308;-73
2022/10/12 02:24:49;;;;;;;7.37;4.37;;;10.10;96.80;;;;;;20995245;28;20209;-72
2022/10/12 02:35:18;;;;;;;14.50;4.23;;;9.90;97.40;;;;;;20995829;28;20245;-78
2022/10/12 02:45:23;;;;;;;11.33;4.07;;;10.00;97.20;;;;;;20992227;28;20222;-73
2022/10/12 02:55:25;;;;;;;8.87;4.20;;;9.90;97.30;;;;;;20995031;28;20300;-74
2022/10/12 03:05:26;;;;;;;5.50;3.80;;;9.70;97.50;;;;;;20997193;28;20243;-74
2022/10/12 03:17:57;;;;;;;8.03;3.80;;;9.70;97.20;;;;;;20984574;28;20554;-77
2022/10/12 03:27:58;;;;;;;7.10;3.63;;;9.60;97.50;;;;;;20983498;28;20290;-74
2022/10/12 03:38:00;;;;;;;9.87;4.27;;;9.70;97.30;;;;;;20983408;28;20731;-74
2022/10/12 03:48:03;;;;;;;10.33;3.23;;;9.80;97.20;;;;;;20981983;28;20208;-74
2022/10/12 03:58:06;;;;;;;5.60;3.20;;;9.80;97.30;;;;;;20981218;28;20212;-76
2022/10/12 04:08:08;;;;;;;8.17;3.83;;;9.70;97.20;;;;;;20980243;28;20741;-75
2022/10/12 04:18:12;;;;;;;10.73;3.70;;;9.60;97.20;;;;;;20978859;28;20218;-77
2022/10/12 04:28:13;;;;;;;8.77;3.87;;;9.70;96.80;;;;;;20846689;28;20207;-79
2022/10/12 04:38:15;;;;;;;7.27;3.90;;;9.70;97.00;;;;;;20840517;28;20220;-75
2022/10/12 04:48:17;;;;;;;7.43;3.50;;;9.70;96.80;;;;;;20838146;28;20212;-77
2022/10/12 04:58:19;;;;;;;9.27;4.07;;;9.60;96.70;;;;;;20837632;28;20290;-75
2022/10/12 05:08:20;;;;;;;17.57;4.00;;;9.50;96.60;;;;;;20837755;28;20232;-72
2022/10/12 05:18:22;;;;;;;8.10;3.50;;;9.50;96.90;;;;;;20837431;28;20214;-70
2022/10/12 05:28:24;;;;;;;16.57;4.60;;;9.60;96.40;;;;;;20916670;28;20580;-74
2022/10/12 05:38:26;;;;;;;11.27;4.30;;;9.50;96.10;;;;;;20857563;28;20211;-76
2022/10/12 05:48:27;;;;;;;12.23;4.33;;;9.50;96.40;;;;;;20834225;28;20591;-71
2022/10/12 05:58:29;;;;;;;8.80;4.33;;;9.50;96.40;;;;;;20833819;28;20204;-73
2022/10/12 06:08:32;;;;;;;9.67;4.47;;;9.60;96.40;;;;;;20833745;28;20287;-75
2022/10/12 06:18:34;;;;;;;9.13;4.00;;;9.70;96.50;;;;;;20832753;28;20603;-77
2022/10/12 06:28:36;;;;;;;21.00;5.00;;;9.70;96.30;;;;;;20830529;28;20229;-75
2022/10/12 06:38:37;;;;;;;14.47;4.43;;;9.70;96.30;;;;;;20829842;28;20207;-75
2022/10/12 06:48:39;;;;;;;22.67;5.27;;;10.00;95.60;;;;;;20829031;28;20690;-76
2022/10/12 06:58:41;;;;;;;14.80;5.17;;;10.10;95.50;;;;;;20827798;28;20239;-76
2022/10/12 07:08:43;;;;;;;25.67;6.00;;;10.10;95.60;;;;;;20828432;28;20239;-76
2022/10/12 07:18:44;;;;;;;20.80;5.47;;;10.00;95.60;;;;;;20829251;28;20277;-71
2022/10/12 07:28:47;;;;;;;20.03;5.43;;;10.00;95.50;;;;;;20828712;28;20243;-72
2022/10/12 07:38:49;;;;;;;12.77;4.80;;;10.10;95.70;;;;;;20827347;28;20240;-72
2022/10/12 07:48:50;;;;;;;13.60;4.60;;;10.20;96.00;;;;;;20828213;28;20590;-75
2022/10/12 07:58:55;;;;;;;13.93;5.00;;;10.40;95.80;;;;;;20837741;28;20213;-76
2022/10/12 08:08:58;;;;;;;16.23;5.10;;;10.60;95.90;;;;;;20844804;28;20252;-74
2022/10/12 08:19:00;;;;;;;12.13;5.23;;;11.00;95.80;;;;;;20843491;28;20657;-71
2022/10/12 08:29:03;;;;;;;16.73;5.90;;;11.50;95.60;;;;;;20840191;28;20292;-74
2022/10/12 08:39:05;;;;;;;14.63;5.83;;;11.80;95.30;;;;;;20840084;28;20205;-74
2022/10/12 08:49:35;;;;;;;19.70;7.33;;;12.30;94.50;;;;;;20840237;28;20236;-74
2022/10/12 08:59:36;;;;;;;21.27;7.67;;;12.70;94.30;;;;;;20837223;28;20267;-73
2022/10/12 09:09:44;;;;;;;17.23;8.17;;;12.90;94.20;;;;;;20835789;28;20252;-77
2022/10/12 09:19:46;;;;;;;22.90;13.70;;;13.30;93.70;;;;;;20835288;28;20212;-73
2022/10/12 09:29:56;;;;;;;18.07;9.17;;;13.60;93.80;;;;;;20833488;28;20568;-74
2022/10/12 09:39:58;;;;;;;17.80;9.17;;;13.90;93.50;;;;;;20834797;28;20211;-72
2022/10/12 09:50:05;;;;;;;17.03;9.13;;;14.30;93.00;;;;;;20834860;28;20232;-75
2022/10/12 10:00:34;;;;;;;18.17;10.03;;;14.40;93.30;;;;;;20833630;28;20203;-73
2022/10/12 10:10:36;;;;;;;16.90;10.10;;;14.70;93.30;;;;;;20831398;28;20271;-74
2022/10/12 10:20:58;;;;;;;22.90;9.30;;;14.90;93.30;;;;;;20831003;28;20205;-75
2022/10/12 10:31:06;;;;;;;18.40;9.10;;;15.40;93.00;;;;;;20830709;28;20282;-74
2022/10/12 10:41:16;;;;;;;22.77;10.57;;;15.50;92.80;;;;;;20832478;28;20247;-76
2022/10/12 10:51:18;;;;;;;18.70;9.47;;;15.50;93.00;;;;;;20833013;28;20270;-76
2022/10/12 11:01:44;;;;;;;17.60;10.17;;;15.70;93.10;;;;;;20831259;28;20554;-75
2022/10/12 11:11:54;;;;;;;16.70;10.20;;;15.90;93.20;;;;;;20828944;28;20299;-73
2022/10/12 11:22:04;;;;;;;18.50;9.93;;;16.20;93.20;;;;;;20827551;28;20217;-75
2022/10/12 11:32:24;;;;;;;17.87;10.17;;;16.40;93.30;;;;;;20831618;28;20250;-75
2022/10/12 11:42:32;;;;;;;18.00;9.50;;;16.70;93.20;;;;;;20846114;28;20660;-77
2022/10/12 11:52:38;;;;;;;20.57;10.20;;;16.90;93.00;;;;;;20842557;28;20239;-76
2022/10/12 12:02:44;;;;;;;15.67;10.27;;;17.20;92.80;;;;;;20842249;28;20215;-79
2022/10/12 12:13:10;;;;;;;18.33;11.60;;;17.50;92.70;;;;;;20841533;28;20303;-78
2022/10/12 12:23:25;;;;;;;20.23;11.50;;;17.70;92.40;;;;;;20838810;28;20677;-73
2022/10/12 12:33:34;;;;;;;23.00;12.53;;;17.80;91.80;;;;;;20836392;28;20292;-78
2022/10/12 12:43:50;;;;;;;22.03;13.43;;;17.90;92.00;;;;;;20837262;28;20262;-77
2022/10/12 12:53:56;;;;;;;21.17;12.90;;;17.90;92.00;;;;;;20837399;28;20239;-75
2022/10/12 13:04:12;;;;;;;20.53;13.63;;;17.90;92.10;;;;;;20836275;28;20212;-72
2022/10/12 13:14:20;;;;;;;21.83;14.47;;;17.90;92.00;;;;;;20834892;28;20351;-76
2022/10/12 13:24:27;;;;;;;21.73;14.30;;;17.90;92.10;;;;;;20835493;28;20207;-75
2022/10/12 13:34:41;;;;;;;24.63;14.73;;;18.00;92.20;;;;;;20834217;28;20243;-75
2022/10/12 13:44:45;;;;;;;24.73;13.03;;;18.00;92.30;;;;;;20831104;28;20215;-72
2022/10/12 13:54:48;;;;;;;21.37;11.93;;;18.00;92.50;;;;;;20830927;28;20302;-73
2022/10/12 14:04:59;;;;;;;22.57;10.80;;;18.00;92.60;;;;;;20832203;28;20619;-76
2022/10/12 14:15:02;;;;;;;17.33;11.00;;;18.10;92.20;;;;;;20831252;28;20283;-74
2022/10/12 14:25:28;;;;;;;18.37;10.87;;;18.20;92.30;;;;;;20830111;28;20257;-75
2022/10/12 14:35:30;;;;;;;14.83;11.40;;;18.30;91.80;;;;;;20833026;28;20317;-74
2022/10/12 14:45:32;;;;;;;20.10;12.07;;;18.20;92.30;;;;;;20830692;28;20713;-77
2022/10/12 14:55:34;;;;;;;17.43;12.07;;;18.10;92.80;;;;;;20829562;28;20293;-77
2022/10/12 15:05:36;;;;;;;18.60;12.77;;;18.70;92.30;;;;;;20826188;28;20728;-75
2022/10/12 15:15:47;;;;;;;18.67;12.97;;;18.40;92.80;;;;;;20827609;28;20244;-75
2022/10/12 15:25:55;;;;;;;22.63;15.33;;;18.20;92.80;;;;;;20827997;28;20210;-73
2022/10/12 15:35:57;;;;;;;24.67;16.03;;;17.90;93.40;;;;;;20827519;28;20288;-74
2022/10/12 15:45:59;;;;;;;25.17;16.90;;;17.70;93.40;;;;;;20912267;28;20651;-74
2022/10/12 15:56:00;;;;;;;30.03;16.77;;;17.50;93.80;;;;;;20979868;28;20252;-73
2022/10/12 16:06:02;;;;;;;26.80;16.30;;;17.30;94.20;;;;;;20910359;28;20216;-73
2022/10/12 16:16:04;;;;;;;23.30;16.63;;;17.20;94.50;;;;;;20940554;28;20604;-75
2022/10/12 16:26:12;;;;;;;30.73;18.47;;;17.00;94.80;;;;;;20952936;28;20209;-74
2022/10/12 16:36:15;;;;;;;28.67;16.03;;;16.80;95.10;;;;;;20840188;28;20616;-74
2022/10/12 16:46:17;;;;;;;28.47;18.53;;;16.70;95.50;;;;;;20839854;28;20218;-80
2022/10/12 16:56:18;;;;;;;30.87;19.50;;;16.40;95.60;;;;;;21000893;28;20261;-73
2022/10/12 17:06:20;;;;;;;28.93;19.27;;;16.30;96.00;;;;;;21002726;28;20215;-72
2022/10/12 17:26:43;;;;;;;29.83;22.17;;;16.00;96.60;;;;;;21004976;28;20253;-76
2022/10/12 17:36:45;;;;;;;41.53;22.73;;;15.80;96.80;;;;;;20879894;28;20237;-76
2022/10/12 17:46:48;;;;;;;34.43;22.77;;;15.50;96.90;;;;;;20918718;28;20269;-77
2022/10/12 17:56:50;;;;;;;36.20;22.10;;;15.50;97.30;;;;;;20916382;28;20784;-75
2022/10/12 18:06:52;;;;;;;32.73;21.90;;;15.30;97.50;;;;;;20874846;28;20208;-76
2022/10/12 18:16:53;;;;;;;34.23;22.10;;;15.20;97.50;;;;;;20913700;28;20270;-77
2022/10/12 18:26:55;;;;;;;35.07;21.13;;;15.00;97.80;;;;;;20905505;28;20211;-76
2022/10/12 18:36:57;;;;;;;35.80;22.07;;;14.90;98.00;;;;;;20830262;28;20699;-75
2022/10/12 18:46:58;;;;;;;38.50;24.03;;;14.60;98.10;;;;;;20848341;28;20237;-77
2022/10/12 18:57:01;;;;;;;44.73;28.00;;;14.60;98.40;;;;;;20948186;28;20247;-75
2022/10/12 19:07:03;;;;;;;34.17;23.87;;;14.60;98.80;;;;;;20951280;28;20209;-75
2022/10/12 19:17:04;;;;;;;39.90;25.83;;;14.50;98.90;;;;;;20975378;28;20288;-73
2022/10/12 19:27:06;;;;;;;43.53;24.93;;;14.40;99.00;;;;;;20969364;28;20203;-75
2022/10/12 19:37:08;;;;;;;36.70;23.13;;;14.30;99.20;;;;;;20987452;28;20239;-77
2022/10/12 19:47:09;;;;;;;36.50;22.20;;;14.40;99.50;;;;;;20988036;28;20260;-76
2022/10/12 19:57:11;;;;;;;37.17;23.37;;;14.40;99.90;;;;;;20965726;28;20232;-76
2022/10/12 20:07:13;;;;;;;32.93;20.50;;;14.40;99.60;;;;;;20919547;28;20208;-74
2022/10/12 20:17:17;;;;;;;34.27;21.23;;;14.30;99.70;;;;;;20918863;28;20245;-76
2022/10/12 20:27:18;;;;;;;32.23;21.43;;;14.20;99.90;;;;;;20922691;28;20675;-72
2022/10/12 20:37:20;;;;;;;35.37;21.83;;;14.20;99.90;;;;;;20922269;28;20251;-75
2022/10/12 20:47:24;;;;;;;36.70;22.10;;;14.10;99.90;;;;;;20923233;28;20269;-75
2022/10/12 20:57:26;;;;;;;33.33;21.73;;;14.10;99.90;;;;;;20918079;28;20235;-76
2022/10/12 21:07:28;;;;;;;34.37;21.20;;;14.00;99.90;;;;;;21004042;28;20220;-75
2022/10/12 21:17:29;;;;;;;35.20;22.67;;;13.90;99.90;;;;;;21002786;28;20245;-76
2022/10/12 21:27:31;;;;;;;34.73;21.97;;;13.80;99.90;;;;;;21002619;28;20560;-76
2022/10/12 21:37:33;;;;;;;34.00;20.80;;;13.60;99.90;;;;;;21001856;28;20239;-75
2022/10/12 21:47:34;;;;;;;33.73;20.70;;;13.50;99.90;;;;;;21001449;28;20269;-75
2022/10/12 21:57:36;;;;;;;35.90;21.97;;;13.30;99.90;;;;;;21001183;28;20763;-76
2022/10/12 22:07:41;;;;;;;33.47;19.67;;;13.30;99.90;;;;;;20999507;28;20673;-76
2022/10/12 22:17:43;;;;;;;36.70;21.17;;;13.20;99.90;;;;;;20936897;28;20237;-77
2022/10/12 22:27:44;;;;;;;32.33;20.07;;;13.10;99.90;;;;;;20832194;28;20205;-76
2022/10/12 22:37:46;;;;;;;35.77;20.20;;;13.00;99.90;;;;;;20832228;28;20242;-77
2022/10/12 22:47:47;;;;;;;34.40;20.80;;;13.00;99.90;;;;;;20831935;28;20225;-76
2022/10/12 22:57:49;;;;;;;31.70;20.23;;;12.90;99.90;;;;;;20830796;28;20240;-76
2022/10/12 23:07:51;;;;;;;35.20;20.00;;;13.00;99.90;;;;;;20830267;28;20207;-77
2022/10/12 23:17:53;;;;;;;37.70;20.60;;;13.10;99.90;;;;;;20830232;28;20791;-76
2022/10/12 23:27:54;;;;;;;35.07;20.10;;;13.00;99.90;;;;;;20836952;28;20216;-77
2022/10/12 23:37:56;;;;;;;36.30;21.00;;;13.00;99.90;;;;;;20846034;28;20282;-77
2022/10/12 23:47:58;;;;;;;36.03;20.23;;;13.10;99.90;;;;;;20845717;28;20703;-77
2022/10/12 23:58:00;;;;;;;41.50;20.87;;;13.10;99.90;;;;;;20844448;28;20264;-77
